sensor_id;sensor_type;location;lat;lon;timestamp;temperature;humidity
61167;DHT22;47038;50.808;3.468;2022-07-29T00:00:51;20.10;74.70
61167;DHT22;47038;50.808;3.468;2022-07-29T00:03:17;20.20;74.30
61167;DHT22;47038;50.808;3.468;2022-07-29T00:05:42;20.00;74.80
61167;DHT22;47038;50.808;3.468;2022-07-29T00:08:08;20.00;75.00
61167;DHT22;47038;50.808;3.468;2022-07-29T00:10:34;20.10;75.00
61167;DHT22;47038;50.808;3.468;2022-07-29T00:13:00;20.00;74.90
61167;DHT22;47038;50.808;3.468;2022-07-29T00:15:25;20.00;74.90
61167;DHT22;47038;50.808;3.468;2022-07-29T00:17:51;20.00;75.20
61167;DHT22;47038;50.808;3.468;2022-07-29T00:20:16;19.90;75.40
61167;DHT22;47038;50.808;3.468;2022-07-29T00:22:42;19.90;75.30
61167;DHT22;47038;50.808;3.468;2022-07-29T00:25:07;20.00;75.30
61167;DHT22;47038;50.808;3.468;2022-07-29T00:27:33;20.00;75.10
61167;DHT22;47038;50.808;3.468;2022-07-29T00:29:59;19.90;75.40
61167;DHT22;47038;50.808;3.468;2022-07-29T00:32:25;20.10;75.30
61167;DHT22;47038;50.808;3.468;2022-07-29T00:34:51;20.00;75.30
61167;DHT22;47038;50.808;3.468;2022-07-29T00:37:35;20.00;75.10
61167;DHT22;47038;50.808;3.468;2022-07-29T00:40:00;20.00;75.40
61167;DHT22;47038;50.808;3.468;2022-07-29T00:42:26;19.80;75.90
61167;DHT22;47038;50.808;3.468;2022-07-29T00:44:52;19.80;76.20
61167;DHT22;47038;50.808;3.468;2022-07-29T00:47:18;19.80;76.20
61167;DHT22;47038;50.808;3.468;2022-07-29T00:49:43;19.70;76.40
61167;DHT22;47038;50.808;3.468;2022-07-29T00:52:10;19.50;76.90
61167;DHT22;47038;50.808;3.468;2022-07-29T00:54:36;19.60;76.90
61167;DHT22;47038;50.808;3.468;2022-07-29T00:57:02;19.60;76.90
61167;DHT22;47038;50.808;3.468;2022-07-29T00:59:28;19.50;77.20
61167;DHT22;47038;50.808;3.468;2022-07-29T01:01:54;19.60;77.10
61167;DHT22;47038;50.808;3.468;2022-07-29T01:04:20;19.60;76.70
61167;DHT22;47038;50.808;3.468;2022-07-29T01:06:47;19.40;77.50
61167;DHT22;47038;50.808;3.468;2022-07-29T01:09:13;19.30;78.20
61167;DHT22;47038;50.808;3.468;2022-07-29T01:11:38;19.10;78.50
61167;DHT22;47038;50.808;3.468;2022-07-29T01:14:05;19.30;78.30
61167;DHT22;47038;50.808;3.468;2022-07-29T01:16:31;19.30;78.50
61167;DHT22;47038;50.808;3.468;2022-07-29T01:19:06;19.20;78.50
61167;DHT22;47038;50.808;3.468;2022-07-29T01:34:25;19.10;79.50
61167;DHT22;47038;50.808;3.468;2022-07-29T01:37:04;19.10;79.40
61167;DHT22;47038;50.808;3.468;2022-07-29T01:39:32;19.00;79.80
61167;DHT22;47038;50.808;3.468;2022-07-29T01:44:35;18.80;80.70
61167;DHT22;47038;50.808;3.468;2022-07-29T01:47:05;18.80;80.80
61167;DHT22;47038;50.808;3.468;2022-07-29T01:49:33;18.70;81.10
61167;DHT22;47038;50.808;3.468;2022-07-29T01:52:02;18.70;81.10
61167;DHT22;47038;50.808;3.468;2022-07-29T01:54:30;18.70;81.20
61167;DHT22;47038;50.808;3.468;2022-07-29T01:56:57;18.80;81.30
61167;DHT22;47038;50.808;3.468;2022-07-29T01:59:23;18.90;81.10
61167;DHT22;47038;50.808;3.468;2022-07-29T02:01:52;18.90;81.10
61167;DHT22;47038;50.808;3.468;2022-07-29T02:04:18;18.80;81.40
61167;DHT22;47038;50.808;3.468;2022-07-29T02:06:45;18.70;81.50
61167;DHT22;47038;50.808;3.468;2022-07-29T02:09:12;18.70;81.90
61167;DHT22;47038;50.808;3.468;2022-07-29T02:11:40;18.60;82.20
61167;DHT22;47038;50.808;3.468;2022-07-29T02:14:08;18.60;82.60
61167;DHT22;47038;50.808;3.468;2022-07-29T02:16:35;18.50;82.70
61167;DHT22;47038;50.808;3.468;2022-07-29T02:19:01;18.50;82.60
61167;DHT22;47038;50.808;3.468;2022-07-29T02:21:28;18.50;82.90
61167;DHT22;47038;50.808;3.468;2022-07-29T02:23:55;18.50;83.00
61167;DHT22;47038;50.808;3.468;2022-07-29T02:26:23;18.50;83.20
61167;DHT22;47038;50.808;3.468;2022-07-29T02:28:49;18.50;83.00
61167;DHT22;47038;50.808;3.468;2022-07-29T02:31:16;18.50;83.20
61167;DHT22;47038;50.808;3.468;2022-07-29T02:33:44;18.40;83.10
61167;DHT22;47038;50.808;3.468;2022-07-29T02:36:11;18.40;83.30
61167;DHT22;47038;50.808;3.468;2022-07-29T02:38:36;18.50;83.00
61167;DHT22;47038;50.808;3.468;2022-07-29T02:41:20;18.40;83.50
61167;DHT22;47038;50.808;3.468;2022-07-29T02:43:48;18.30;84.10
61167;DHT22;47038;50.808;3.468;2022-07-29T02:46:17;18.20;84.30
61167;DHT22;47038;50.808;3.468;2022-07-29T02:48:49;18.10;84.40
61167;DHT22;47038;50.808;3.468;2022-07-29T02:51:23;18.00;84.80
61167;DHT22;47038;50.808;3.468;2022-07-29T02:53:51;18.10;85.20
61167;DHT22;47038;50.808;3.468;2022-07-29T02:56:18;18.00;85.00
61167;DHT22;47038;50.808;3.468;2022-07-29T02:58:55;18.00;85.20
61167;DHT22;47038;50.808;3.468;2022-07-29T03:01:25;18.00;85.40
61167;DHT22;47038;50.808;3.468;2022-07-29T03:03:54;17.90;85.80
61167;DHT22;47038;50.808;3.468;2022-07-29T03:06:20;17.80;86.10
61167;DHT22;47038;50.808;3.468;2022-07-29T03:08:46;17.80;86.30
61167;DHT22;47038;50.808;3.468;2022-07-29T03:11:12;17.80;86.40
61167;DHT22;47038;50.808;3.468;2022-07-29T03:13:38;17.70;86.50
61167;DHT22;47038;50.808;3.468;2022-07-29T03:16:04;17.60;87.00
61167;DHT22;47038;50.808;3.468;2022-07-29T03:18:30;17.50;87.60
61167;DHT22;47038;50.808;3.468;2022-07-29T03:20:56;17.40;88.30
61167;DHT22;47038;50.808;3.468;2022-07-29T03:23:22;17.30;88.70
61167;DHT22;47038;50.808;3.468;2022-07-29T03:25:49;17.20;89.60
61167;DHT22;47038;50.808;3.468;2022-07-29T03:28:14;17.20;89.90
61167;DHT22;47038;50.808;3.468;2022-07-29T03:30:40;17.20;90.00
61167;DHT22;47038;50.808;3.468;2022-07-29T03:33:05;17.20;90.00
61167;DHT22;47038;50.808;3.468;2022-07-29T03:35:31;17.20;90.00
61167;DHT22;47038;50.808;3.468;2022-07-29T03:37:57;17.30;89.70
61167;DHT22;47038;50.808;3.468;2022-07-29T03:40:25;17.20;90.00
61167;DHT22;47038;50.808;3.468;2022-07-29T03:42:51;17.20;90.20
61167;DHT22;47038;50.808;3.468;2022-07-29T03:45:18;17.30;90.10
61167;DHT22;47038;50.808;3.468;2022-07-29T03:47:48;17.20;90.10
61167;DHT22;47038;50.808;3.468;2022-07-29T03:50:15;17.30;90.00
61167;DHT22;47038;50.808;3.468;2022-07-29T03:52:42;17.20;90.40
61167;DHT22;47038;50.808;3.468;2022-07-29T03:55:08;17.10;90.40
61167;DHT22;47038;50.808;3.468;2022-07-29T03:57:34;17.00;90.50
61167;DHT22;47038;50.808;3.468;2022-07-29T04:00:00;17.00;91.00
61167;DHT22;47038;50.808;3.468;2022-07-29T04:02:26;16.90;91.10
61167;DHT22;47038;50.808;3.468;2022-07-29T04:04:52;16.90;91.20
61167;DHT22;47038;50.808;3.468;2022-07-29T04:07:17;16.80;91.30
61167;DHT22;47038;50.808;3.468;2022-07-29T04:09:43;16.70;91.40
61167;DHT22;47038;50.808;3.468;2022-07-29T04:12:09;16.80;91.60
61167;DHT22;47038;50.808;3.468;2022-07-29T04:14:35;16.70;91.30
61167;DHT22;47038;50.808;3.468;2022-07-29T04:17:01;16.60;91.60
61167;DHT22;47038;50.808;3.468;2022-07-29T04:19:27;16.50;92.20
61167;DHT22;47038;50.808;3.468;2022-07-29T04:21:52;16.60;92.10
61167;DHT22;47038;50.808;3.468;2022-07-29T04:24:18;16.50;92.60
61167;DHT22;47038;50.808;3.468;2022-07-29T04:26:45;16.60;92.30
61167;DHT22;47038;50.808;3.468;2022-07-29T04:29:10;16.50;92.60
61167;DHT22;47038;50.808;3.468;2022-07-29T04:31:37;16.50;92.70
61167;DHT22;47038;50.808;3.468;2022-07-29T04:34:03;16.50;92.80
61167;DHT22;47038;50.808;3.468;2022-07-29T04:36:28;16.60;92.70
61167;DHT22;47038;50.808;3.468;2022-07-29T04:38:54;16.60;92.90
61167;DHT22;47038;50.808;3.468;2022-07-29T04:41:20;16.60;92.90
61167;DHT22;47038;50.808;3.468;2022-07-29T04:43:45;16.60;92.90
61167;DHT22;47038;50.808;3.468;2022-07-29T04:46:11;16.60;93.20
61167;DHT22;47038;50.808;3.468;2022-07-29T04:48:36;16.60;93.10
61167;DHT22;47038;50.808;3.468;2022-07-29T04:51:02;16.90;92.70
61167;DHT22;47038;50.808;3.468;2022-07-29T04:53:27;16.90;92.70
61167;DHT22;47038;50.808;3.468;2022-07-29T04:55:53;17.00;92.50
61167;DHT22;47038;50.808;3.468;2022-07-29T04:58:19;17.10;92.40
61167;DHT22;47038;50.808;3.468;2022-07-29T05:00:44;17.10;92.30
61167;DHT22;47038;50.808;3.468;2022-07-29T05:03:10;17.20;92.10
61167;DHT22;47038;50.808;3.468;2022-07-29T05:05:35;17.30;92.00
61167;DHT22;47038;50.808;3.468;2022-07-29T05:08:01;17.30;91.90
61167;DHT22;47038;50.808;3.468;2022-07-29T05:10:26;17.30;92.00
61167;DHT22;47038;50.808;3.468;2022-07-29T05:12:52;17.40;91.90
61167;DHT22;47038;50.808;3.468;2022-07-29T05:15:17;17.60;92.00
61167;DHT22;47038;50.808;3.468;2022-07-29T05:17:43;17.90;91.60
61167;DHT22;47038;50.808;3.468;2022-07-29T05:20:09;18.20;91.20
61167;DHT22;47038;50.808;3.468;2022-07-29T05:22:34;18.40;90.60
61167;DHT22;47038;50.808;3.468;2022-07-29T05:25:00;18.60;90.30
61167;DHT22;47038;50.808;3.468;2022-07-29T05:27:25;18.50;90.40
61167;DHT22;47038;50.808;3.468;2022-07-29T05:29:51;18.50;90.30
61167;DHT22;47038;50.808;3.468;2022-07-29T05:32:16;18.70;90.10
61167;DHT22;47038;50.808;3.468;2022-07-29T05:34:42;18.80;90.00
61167;DHT22;47038;50.808;3.468;2022-07-29T05:37:08;18.80;90.10
61167;DHT22;47038;50.808;3.468;2022-07-29T05:39:33;18.80;90.20
61167;DHT22;47038;50.808;3.468;2022-07-29T05:41:59;18.80;90.10
61167;DHT22;47038;50.808;3.468;2022-07-29T05:44:24;18.90;90.10
61167;DHT22;47038;50.808;3.468;2022-07-29T05:46:50;18.90;90.10
61167;DHT22;47038;50.808;3.468;2022-07-29T05:49:15;19.00;90.10
61167;DHT22;47038;50.808;3.468;2022-07-29T05:51:41;19.10;89.50
61167;DHT22;47038;50.808;3.468;2022-07-29T05:54:06;19.20;89.00
61167;DHT22;47038;50.808;3.468;2022-07-29T05:56:32;19.30;89.20
61167;DHT22;47038;50.808;3.468;2022-07-29T05:58:57;19.30;88.90
61167;DHT22;47038;50.808;3.468;2022-07-29T06:01:23;19.30;88.50
61167;DHT22;47038;50.808;3.468;2022-07-29T06:03:49;19.30;88.80
61167;DHT22;47038;50.808;3.468;2022-07-29T06:06:14;19.40;88.70
61167;DHT22;47038;50.808;3.468;2022-07-29T06:08:40;19.30;89.00
61167;DHT22;47038;50.808;3.468;2022-07-29T06:11:05;19.40;89.50
61167;DHT22;47038;50.808;3.468;2022-07-29T06:13:32;19.60;88.70
61167;DHT22;47038;50.808;3.468;2022-07-29T06:15:57;19.80;87.80
61167;DHT22;47038;50.808;3.468;2022-07-29T06:18:23;19.90;87.80
61167;DHT22;47038;50.808;3.468;2022-07-29T06:20:52;19.80;87.70
61167;DHT22;47038;50.808;3.468;2022-07-29T06:23:18;20.00;87.80
61167;DHT22;47038;50.808;3.468;2022-07-29T06:25:44;20.00;87.40
61167;DHT22;47038;50.808;3.468;2022-07-29T06:28:10;20.00;86.60
61167;DHT22;47038;50.808;3.468;2022-07-29T06:30:35;20.10;87.20
61167;DHT22;47038;50.808;3.468;2022-07-29T06:33:01;20.20;86.70
61167;DHT22;47038;50.808;3.468;2022-07-29T06:35:27;20.50;85.40
61167;DHT22;47038;50.808;3.468;2022-07-29T06:37:52;20.60;85.40
61167;DHT22;47038;50.808;3.468;2022-07-29T06:40:18;20.70;84.40
61167;DHT22;47038;50.808;3.468;2022-07-29T06:43:02;20.80;84.50
61167;DHT22;47038;50.808;3.468;2022-07-29T06:45:28;20.70;84.40
61167;DHT22;47038;50.808;3.468;2022-07-29T06:47:53;20.90;83.40
61167;DHT22;47038;50.808;3.468;2022-07-29T06:50:19;21.00;83.20
61167;DHT22;47038;50.808;3.468;2022-07-29T06:52:45;20.90;84.20
61167;DHT22;47038;50.808;3.468;2022-07-29T06:55:11;20.80;84.90
61167;DHT22;47038;50.808;3.468;2022-07-29T06:57:36;21.10;83.70
61167;DHT22;47038;50.808;3.468;2022-07-29T07:00:02;21.10;83.20
61167;DHT22;47038;50.808;3.468;2022-07-29T07:02:30;21.00;84.60
61167;DHT22;47038;50.808;3.468;2022-07-29T07:04:55;21.10;83.90
61167;DHT22;47038;50.808;3.468;2022-07-29T07:07:21;21.20;83.70
61167;DHT22;47038;50.808;3.468;2022-07-29T07:09:46;21.20;83.40
61167;DHT22;47038;50.808;3.468;2022-07-29T07:12:12;21.40;83.30
61167;DHT22;47038;50.808;3.468;2022-07-29T07:14:37;21.20;83.70
61167;DHT22;47038;50.808;3.468;2022-07-29T07:17:03;21.20;83.90
61167;DHT22;47038;50.808;3.468;2022-07-29T07:19:29;21.30;84.20
61167;DHT22;47038;50.808;3.468;2022-07-29T07:21:54;21.50;82.70
61167;DHT22;47038;50.808;3.468;2022-07-29T07:24:20;21.70;82.20
61167;DHT22;47038;50.808;3.468;2022-07-29T07:26:45;21.90;81.50
61167;DHT22;47038;50.808;3.468;2022-07-29T07:29:11;22.10;80.80
61167;DHT22;47038;50.808;3.468;2022-07-29T07:31:37;21.90;80.70
61167;DHT22;47038;50.808;3.468;2022-07-29T07:34:03;22.20;80.00
61167;DHT22;47038;50.808;3.468;2022-07-29T07:36:28;22.20;79.50
61167;DHT22;47038;50.808;3.468;2022-07-29T07:38:54;22.40;79.30
61167;DHT22;47038;50.808;3.468;2022-07-29T07:41:20;22.60;78.40
61167;DHT22;47038;50.808;3.468;2022-07-29T07:43:45;22.80;77.30
61167;DHT22;47038;50.808;3.468;2022-07-29T07:46:11;22.80;77.90
61167;DHT22;47038;50.808;3.468;2022-07-29T07:48:36;22.90;77.20
61167;DHT22;47038;50.808;3.468;2022-07-29T07:51:02;23.00;77.20
61167;DHT22;47038;50.808;3.468;2022-07-29T07:53:27;22.90;76.90
61167;DHT22;47038;50.808;3.468;2022-07-29T07:55:54;23.00;76.70
61167;DHT22;47038;50.808;3.468;2022-07-29T07:58:20;23.10;76.60
61167;DHT22;47038;50.808;3.468;2022-07-29T08:00:46;23.00;77.30
61167;DHT22;47038;50.808;3.468;2022-07-29T08:03:12;23.20;76.90
61167;DHT22;47038;50.808;3.468;2022-07-29T08:05:41;23.50;76.10
61167;DHT22;47038;50.808;3.468;2022-07-29T08:08:07;23.60;76.60
61167;DHT22;47038;50.808;3.468;2022-07-29T08:10:33;23.80;75.10
61167;DHT22;47038;50.808;3.468;2022-07-29T08:13:17;23.90;75.60
61167;DHT22;47038;50.808;3.468;2022-07-29T08:15:43;23.90;74.80
61167;DHT22;47038;50.808;3.468;2022-07-29T08:18:11;24.10;73.70
61167;DHT22;47038;50.808;3.468;2022-07-29T08:20:37;23.90;74.00
61167;DHT22;47038;50.808;3.468;2022-07-29T08:23:04;23.90;72.80
61167;DHT22;47038;50.808;3.468;2022-07-29T08:25:31;24.00;73.30
61167;DHT22;47038;50.808;3.468;2022-07-29T08:27:57;24.00;72.90
61167;DHT22;47038;50.808;3.468;2022-07-29T08:30:22;24.00;72.20
61167;DHT22;47038;50.808;3.468;2022-07-29T08:32:48;23.60;72.80
61167;DHT22;47038;50.808;3.468;2022-07-29T08:35:14;23.90;73.80
61167;DHT22;47038;50.808;3.468;2022-07-29T08:37:40;24.00;73.40
61167;DHT22;47038;50.808;3.468;2022-07-29T08:40:05;24.20;73.20
61167;DHT22;47038;50.808;3.468;2022-07-29T08:42:31;24.40;72.10
61167;DHT22;47038;50.808;3.468;2022-07-29T08:44:56;24.40;71.50
61167;DHT22;47038;50.808;3.468;2022-07-29T08:47:23;24.40;70.60
61167;DHT22;47038;50.808;3.468;2022-07-29T08:49:51;24.20;70.40
61167;DHT22;47038;50.808;3.468;2022-07-29T08:52:17;24.20;72.10
61167;DHT22;47038;50.808;3.468;2022-07-29T08:54:43;24.40;70.70
61167;DHT22;47038;50.808;3.468;2022-07-29T08:57:09;24.30;71.50
61167;DHT22;47038;50.808;3.468;2022-07-29T08:59:35;24.70;69.70
61167;DHT22;47038;50.808;3.468;2022-07-29T09:02:02;24.40;68.60
61167;DHT22;47038;50.808;3.468;2022-07-29T09:04:32;24.00;69.40
61167;DHT22;47038;50.808;3.468;2022-07-29T09:07:00;24.40;69.10
61167;DHT22;47038;50.808;3.468;2022-07-29T09:09:28;24.50;69.40
61167;DHT22;47038;50.808;3.468;2022-07-29T09:11:54;24.60;69.70
61167;DHT22;47038;50.808;3.468;2022-07-29T09:14:22;24.70;68.70
61167;DHT22;47038;50.808;3.468;2022-07-29T09:16:49;24.70;67.50
61167;DHT22;47038;50.808;3.468;2022-07-29T09:19:25;24.90;68.30
61167;DHT22;47038;50.808;3.468;2022-07-29T09:21:51;25.00;67.60
61167;DHT22;47038;50.808;3.468;2022-07-29T09:24:23;25.20;68.00
61167;DHT22;47038;50.808;3.468;2022-07-29T09:26:49;25.60;65.80
61167;DHT22;47038;50.808;3.468;2022-07-29T09:29:15;25.80;66.10
61167;DHT22;47038;50.808;3.468;2022-07-29T09:31:42;25.50;67.00
61167;DHT22;47038;50.808;3.468;2022-07-29T09:34:08;25.50;66.30
61167;DHT22;47038;50.808;3.468;2022-07-29T09:36:53;25.70;64.60
61167;DHT22;47038;50.808;3.468;2022-07-29T09:42:01;25.40;65.10
61167;DHT22;47038;50.808;3.468;2022-07-29T09:44:27;25.20;65.70
61167;DHT22;47038;50.808;3.468;2022-07-29T09:47:05;25.10;65.30
61167;DHT22;47038;50.808;3.468;2022-07-29T09:49:34;25.40;66.20
61167;DHT22;47038;50.808;3.468;2022-07-29T09:54:30;25.20;65.90
61167;DHT22;47038;50.808;3.468;2022-07-29T09:57:02;24.90;65.20
61167;DHT22;47038;50.808;3.468;2022-07-29T09:59:28;24.60;66.10
61167;DHT22;47038;50.808;3.468;2022-07-29T10:01:53;24.90;66.30
61167;DHT22;47038;50.808;3.468;2022-07-29T10:04:19;25.00;66.40
61167;DHT22;47038;50.808;3.468;2022-07-29T10:09:22;24.80;65.70
61167;DHT22;47038;50.808;3.468;2022-07-29T10:12:04;24.90;65.50
61167;DHT22;47038;50.808;3.468;2022-07-29T10:14:31;25.30;64.10
61167;DHT22;47038;50.808;3.468;2022-07-29T10:16:56;25.00;64.60
61167;DHT22;47038;50.808;3.468;2022-07-29T10:19:22;25.40;64.00
61167;DHT22;47038;50.808;3.468;2022-07-29T10:21:47;25.60;64.40
61167;DHT22;47038;50.808;3.468;2022-07-29T10:24:13;25.60;63.70
61167;DHT22;47038;50.808;3.468;2022-07-29T10:26:39;25.70;64.00
61167;DHT22;47038;50.808;3.468;2022-07-29T10:29:06;25.70;63.30
61167;DHT22;47038;50.808;3.468;2022-07-29T10:31:38;25.60;64.10
61167;DHT22;47038;50.808;3.468;2022-07-29T10:39:52;25.80;63.70
61167;DHT22;47038;50.808;3.468;2022-07-29T10:42:18;25.80;64.20
61167;DHT22;47038;50.808;3.468;2022-07-29T10:44:45;26.10;62.90
61167;DHT22;47038;50.808;3.468;2022-07-29T10:47:24;26.10;64.70
61167;DHT22;47038;50.808;3.468;2022-07-29T10:52:22;26.10;63.20
61167;DHT22;47038;50.808;3.468;2022-07-29T10:54:49;26.40;62.60
61167;DHT22;47038;50.808;3.468;2022-07-29T10:57:26;26.10;63.00
61167;DHT22;47038;50.808;3.468;2022-07-29T11:07:25;26.70;60.60
61167;DHT22;47038;50.808;3.468;2022-07-29T11:15:01;27.30;58.30
61167;DHT22;47038;50.808;3.468;2022-07-29T11:17:28;27.10;60.00
61167;DHT22;47038;50.808;3.468;2022-07-29T11:20:37;27.40;59.10
61167;DHT22;47038;50.808;3.468;2022-07-29T11:22:42;27.80;58.80
61167;DHT22;47038;50.808;3.468;2022-07-29T11:25:17;27.40;58.70
61167;DHT22;47038;50.808;3.468;2022-07-29T11:27:46;27.60;57.80
61167;DHT22;47038;50.808;3.468;2022-07-29T11:30:12;27.60;57.10
61167;DHT22;47038;50.808;3.468;2022-07-29T11:32:39;27.40;57.10
61167;DHT22;47038;50.808;3.468;2022-07-29T11:35:12;27.60;56.90
61167;DHT22;47038;50.808;3.468;2022-07-29T11:37:38;27.80;57.50
61167;DHT22;47038;50.808;3.468;2022-07-29T11:47:29;28.00;56.50
61167;DHT22;47038;50.808;3.468;2022-07-29T11:49:55;28.10;56.10
61167;DHT22;47038;50.808;3.468;2022-07-29T11:52:22;28.00;55.60
61167;DHT22;47038;50.808;3.468;2022-07-29T11:54:48;27.80;56.50
61167;DHT22;47038;50.808;3.468;2022-07-29T11:57:15;28.40;56.90
61167;DHT22;47038;50.808;3.468;2022-07-29T11:59:42;28.80;55.00
61167;DHT22;47038;50.808;3.468;2022-07-29T12:02:08;29.30;54.70
61167;DHT22;47038;50.808;3.468;2022-07-29T12:04:33;29.60;54.20
61167;DHT22;47038;50.808;3.468;2022-07-29T12:07:00;29.60;54.20
61167;DHT22;47038;50.808;3.468;2022-07-29T12:09:25;29.40;54.40
61167;DHT22;47038;50.808;3.468;2022-07-29T12:11:57;28.90;54.50
61167;DHT22;47038;50.808;3.468;2022-07-29T12:14:24;29.20;54.00
61167;DHT22;47038;50.808;3.468;2022-07-29T12:16:50;29.30;53.80
61167;DHT22;47038;50.808;3.468;2022-07-29T12:19:16;29.50;53.70
61167;DHT22;47038;50.808;3.468;2022-07-29T12:21:45;29.50;53.80
61167;DHT22;47038;50.808;3.468;2022-07-29T12:24:11;29.50;53.70
61167;DHT22;47038;50.808;3.468;2022-07-29T12:26:36;29.30;54.50
61167;DHT22;47038;50.808;3.468;2022-07-29T12:29:16;29.10;55.00
61167;DHT22;47038;50.808;3.468;2022-07-29T12:31:43;28.80;54.50
61167;DHT22;47038;50.808;3.468;2022-07-29T12:34:10;28.70;55.50
61167;DHT22;47038;50.808;3.468;2022-07-29T12:36:35;29.00;55.20
61167;DHT22;47038;50.808;3.468;2022-07-29T12:39:01;29.20;54.00
61167;DHT22;47038;50.808;3.468;2022-07-29T12:41:28;29.30;53.70
61167;DHT22;47038;50.808;3.468;2022-07-29T12:43:53;29.30;52.80
61167;DHT22;47038;50.808;3.468;2022-07-29T12:46:19;29.60;52.50
61167;DHT22;47038;50.808;3.468;2022-07-29T12:48:49;29.90;52.30
61167;DHT22;47038;50.808;3.468;2022-07-29T12:51:15;30.10;51.70
61167;DHT22;47038;50.808;3.468;2022-07-29T12:54:00;30.20;53.10
61167;DHT22;47038;50.808;3.468;2022-07-29T12:56:26;30.20;52.20
61167;DHT22;47038;50.808;3.468;2022-07-29T12:58:52;30.10;52.40
61167;DHT22;47038;50.808;3.468;2022-07-29T13:01:17;29.90;51.90
61167;DHT22;47038;50.808;3.468;2022-07-29T13:11:47;30.30;52.10
61167;DHT22;47038;50.808;3.468;2022-07-29T13:14:14;30.30;51.90
61167;DHT22;47038;50.808;3.468;2022-07-29T13:19:32;29.60;52.70
61167;DHT22;47038;50.808;3.468;2022-07-29T13:21:58;29.50;54.00
61167;DHT22;47038;50.808;3.468;2022-07-29T13:24:23;28.90;54.10
61167;DHT22;47038;50.808;3.468;2022-07-29T13:26:49;28.60;54.00
61167;DHT22;47038;50.808;3.468;2022-07-29T13:29:14;28.50;54.00
61167;DHT22;47038;50.808;3.468;2022-07-29T13:31:40;28.60;53.60
61167;DHT22;47038;50.808;3.468;2022-07-29T13:34:05;28.70;53.90
61167;DHT22;47038;50.808;3.468;2022-07-29T13:36:31;29.00;53.60
61167;DHT22;47038;50.808;3.468;2022-07-29T13:38:56;29.50;52.90
61167;DHT22;47038;50.808;3.468;2022-07-29T13:41:22;29.70;51.80
61167;DHT22;47038;50.808;3.468;2022-07-29T13:43:48;29.70;51.70
61167;DHT22;47038;50.808;3.468;2022-07-29T13:46:13;29.60;51.70
61167;DHT22;47038;50.808;3.468;2022-07-29T13:48:39;29.50;51.80
61167;DHT22;47038;50.808;3.468;2022-07-29T13:51:04;29.50;52.40
61167;DHT22;47038;50.808;3.468;2022-07-29T13:53:30;29.50;53.60
61167;DHT22;47038;50.808;3.468;2022-07-29T13:55:55;29.50;53.50
61167;DHT22;47038;50.808;3.468;2022-07-29T13:58:21;29.40;54.30
61167;DHT22;47038;50.808;3.468;2022-07-29T14:00:47;28.70;55.40
61167;DHT22;47038;50.808;3.468;2022-07-29T14:03:12;28.80;55.60
61167;DHT22;47038;50.808;3.468;2022-07-29T14:05:38;29.20;54.60
61167;DHT22;47038;50.808;3.468;2022-07-29T14:08:03;29.30;53.90
61167;DHT22;47038;50.808;3.468;2022-07-29T14:10:29;29.20;53.80
61167;DHT22;47038;50.808;3.468;2022-07-29T14:12:54;29.00;54.10
61167;DHT22;47038;50.808;3.468;2022-07-29T14:15:20;28.80;54.00
61167;DHT22;47038;50.808;3.468;2022-07-29T14:17:45;29.00;54.70
61167;DHT22;47038;50.808;3.468;2022-07-29T14:20:11;29.00;55.60
61167;DHT22;47038;50.808;3.468;2022-07-29T14:22:37;28.80;54.40
61167;DHT22;47038;50.808;3.468;2022-07-29T14:25:02;28.70;54.90
61167;DHT22;47038;50.808;3.468;2022-07-29T14:27:28;28.60;55.40
61167;DHT22;47038;50.808;3.468;2022-07-29T14:29:54;28.70;55.20
61167;DHT22;47038;50.808;3.468;2022-07-29T14:32:19;28.80;54.90
61167;DHT22;47038;50.808;3.468;2022-07-29T14:34:45;28.80;55.20
61167;DHT22;47038;50.808;3.468;2022-07-29T14:37:10;28.80;56.00
61167;DHT22;47038;50.808;3.468;2022-07-29T14:39:36;29.20;56.80
61167;DHT22;47038;50.808;3.468;2022-07-29T14:42:01;29.10;55.50
61167;DHT22;47038;50.808;3.468;2022-07-29T14:44:27;28.70;54.70
61167;DHT22;47038;50.808;3.468;2022-07-29T14:46:59;28.40;56.00
61167;DHT22;47038;50.808;3.468;2022-07-29T14:49:25;28.30;56.40
61167;DHT22;47038;50.808;3.468;2022-07-29T14:51:51;28.60;56.20
61167;DHT22;47038;50.808;3.468;2022-07-29T14:54:17;29.00;55.30
61167;DHT22;47038;50.808;3.468;2022-07-29T14:56:42;29.10;54.90
61167;DHT22;47038;50.808;3.468;2022-07-29T14:59:08;28.90;55.50
61167;DHT22;47038;50.808;3.468;2022-07-29T15:01:33;28.90;55.90
61167;DHT22;47038;50.808;3.468;2022-07-29T15:03:59;28.80;55.70
61167;DHT22;47038;50.808;3.468;2022-07-29T15:06:24;28.70;57.40
61167;DHT22;47038;50.808;3.468;2022-07-29T15:08:50;28.80;56.50
61167;DHT22;47038;50.808;3.468;2022-07-29T15:11:15;28.60;57.20
61167;DHT22;47038;50.808;3.468;2022-07-29T15:13:41;28.40;57.50
61167;DHT22;47038;50.808;3.468;2022-07-29T15:16:07;28.20;57.90
61167;DHT22;47038;50.808;3.468;2022-07-29T15:18:32;28.30;56.20
61167;DHT22;47038;50.808;3.468;2022-07-29T15:20:58;28.40;56.10
61167;DHT22;47038;50.808;3.468;2022-07-29T15:23:25;28.60;56.70
61167;DHT22;47038;50.808;3.468;2022-07-29T15:25:51;28.50;56.70
61167;DHT22;47038;50.808;3.468;2022-07-29T15:28:16;28.40;56.80
61167;DHT22;47038;50.808;3.468;2022-07-29T15:30:42;28.10;57.00
61167;DHT22;47038;50.808;3.468;2022-07-29T15:33:08;27.80;57.70
61167;DHT22;47038;50.808;3.468;2022-07-29T15:35:34;27.60;58.70
61167;DHT22;47038;50.808;3.468;2022-07-29T15:37:59;27.80;57.50
61167;DHT22;47038;50.808;3.468;2022-07-29T15:40:25;27.80;56.80
61167;DHT22;47038;50.808;3.468;2022-07-29T15:42:50;27.80;57.10
61167;DHT22;47038;50.808;3.468;2022-07-29T15:45:16;27.90;56.20
61167;DHT22;47038;50.808;3.468;2022-07-29T15:47:41;27.90;57.10
61167;DHT22;47038;50.808;3.468;2022-07-29T15:50:07;28.20;57.50
61167;DHT22;47038;50.808;3.468;2022-07-29T15:52:38;28.60;56.50
61167;DHT22;47038;50.808;3.468;2022-07-29T15:55:04;28.80;56.10
61167;DHT22;47038;50.808;3.468;2022-07-29T15:57:30;28.40;55.90
61167;DHT22;47038;50.808;3.468;2022-07-29T15:59:55;28.00;56.90
61167;DHT22;47038;50.808;3.468;2022-07-29T16:02:21;27.70;57.60
61167;DHT22;47038;50.808;3.468;2022-07-29T16:04:47;27.50;57.70
61167;DHT22;47038;50.808;3.468;2022-07-29T16:07:12;27.10;58.10
61167;DHT22;47038;50.808;3.468;2022-07-29T16:09:38;27.00;59.20
61167;DHT22;47038;50.808;3.468;2022-07-29T16:12:03;27.20;58.60
61167;DHT22;47038;50.808;3.468;2022-07-29T16:14:29;27.30;58.60
61167;DHT22;47038;50.808;3.468;2022-07-29T16:16:55;27.10;58.60
61167;DHT22;47038;50.808;3.468;2022-07-29T16:19:20;27.10;59.50
61167;DHT22;47038;50.808;3.468;2022-07-29T16:21:46;27.30;59.50
61167;DHT22;47038;50.808;3.468;2022-07-29T16:24:11;27.40;59.70
61167;DHT22;47038;50.808;3.468;2022-07-29T16:26:37;27.40;59.10
61167;DHT22;47038;50.808;3.468;2022-07-29T16:29:03;27.50;59.00